createdAt,value
2023-02-09T00:01:31.716Z,36.90
2023-02-09T00:04:00.052Z,36.36
2023-02-09T00:06:30.055Z,38.45
2023-02-09T00:09:01.273Z,37.94
2023-02-09T00:11:49.842Z,39.49
2023-02-09T00:14:21.910Z,38.26
2023-02-09T00:16:50.816Z,36.51
2023-02-09T00:19:21.637Z,37.69
2023-02-09T00:21:49.500Z,39.49
2023-02-09T00:24:16.954Z,39.63
2023-02-09T00:26:47.244Z,37.25
2023-02-09T00:29:14.898Z,37.62
2023-02-09T00:31:42.560Z,38.90
2023-02-09T00:34:10.713Z,41.08
2023-02-09T00:36:37.893Z,36.64
2023-02-09T00:39:05.109Z,38.70
2023-02-09T00:41:51.525Z,38.61
2023-02-09T00:44:18.671Z,38.96
2023-02-09T00:46:45.818Z,38.33
2023-02-09T00:49:13.112Z,40.88
2023-02-09T00:51:42.626Z,37.89
2023-02-09T00:54:10.401Z,39.06
2023-02-09T00:56:37.472Z,37.01
2023-02-09T00:59:04.846Z,36.74
2023-02-09T01:01:32.130Z,39.34
2023-02-09T01:03:59.333Z,37.85
2023-02-09T01:06:26.568Z,37.00
2023-02-09T01:08:54.861Z,35.02
2023-02-09T01:11:27.070Z,36.58
2023-02-09T01:13:58.063Z,37.30
2023-02-09T01:16:28.761Z,37.95
2023-02-09T01:18:56.586Z,36.18
2023-02-09T01:21:26.132Z,36.08
2023-02-09T01:23:53.519Z,35.98
2023-02-09T01:26:20.795Z,34.30
2023-02-09T01:28:55.538Z,33.46
2023-02-09T01:31:26.663Z,33.56
2023-02-09T01:33:56.293Z,32.86
2023-02-09T01:36:26.347Z,32.39
2023-02-09T01:38:58.851Z,31.14
2023-02-09T01:41:26.599Z,30.79
2023-02-09T01:44:11.755Z,31.50
2023-02-09T01:46:39.947Z,34.70
2023-02-09T01:49:09.919Z,32.71
2023-02-09T01:52:08.953Z,33.70
2023-02-09T01:54:46.373Z,32.86
2023-02-09T01:57:25.455Z,33.24
2023-02-09T02:00:03.736Z,32.60
2023-02-09T02:02:31.125Z,31.37
2023-02-09T02:04:58.922Z,31.58
2023-02-09T02:07:47.383Z,30.12
2023-02-09T02:10:15.001Z,30.22
2023-02-09T02:12:42.849Z,30.42
2023-02-09T02:15:10.255Z,30.11
2023-02-09T02:18:43.646Z,30.46
2023-02-09T02:21:31.762Z,30.41
2023-02-09T02:24:24.893Z,31.73
2023-02-09T02:27:32.483Z,29.78
2023-02-09T02:30:19.944Z,31.40
2023-02-09T02:33:12.071Z,33.95
2023-02-09T02:36:11.238Z,33.41
2023-02-09T02:39:11.188Z,33.32
2023-02-09T02:42:16.511Z,33.06
2023-02-09T02:44:56.532Z,30.64
2023-02-09T02:47:27.239Z,31.02
2023-02-09T02:50:02.092Z,30.01
2023-02-09T02:52:29.579Z,30.38
2023-02-09T02:55:15.266Z,29.70
2023-02-09T02:57:50.972Z,31.03
2023-02-09T03:00:30.699Z,30.50
2023-02-09T03:03:05.810Z,29.61
2023-02-09T03:05:39.110Z,29.61
2023-02-09T03:08:06.650Z,30.93
2023-02-09T03:10:38.375Z,30.97
2023-02-09T03:13:29.274Z,30.08
2023-02-09T03:16:13.250Z,30.56
2023-02-09T03:19:04.805Z,34.19
2023-02-09T03:21:45.407Z,31.64
2023-02-09T03:24:41.748Z,31.83
2023-02-09T03:27:35.460Z,30.38
2023-02-09T03:30:04.922Z,33.79
2023-02-09T03:32:36.559Z,36.06
2023-02-09T03:35:05.297Z,34.89
2023-02-09T03:37:32.470Z,32.04
2023-02-09T03:39:59.689Z,31.09
2023-02-09T03:42:26.994Z,30.13
2023-02-09T03:44:54.211Z,29.69
2023-02-09T03:47:21.375Z,29.65
2023-02-09T03:49:48.537Z,29.65
2023-02-09T03:52:17.540Z,29.09
2023-02-09T03:54:45.073Z,30.03
2023-02-09T03:57:12.324Z,29.82
2023-02-09T03:59:39.939Z,29.48
2023-02-09T04:02:10.746Z,30.03
2023-02-09T04:04:38.560Z,29.61
2023-02-09T04:07:08.130Z,30.81
2023-02-09T04:09:37.622Z,30.62
2023-02-09T04:12:05.393Z,30.00
2023-02-09T04:14:35.069Z,30.37
2023-02-09T04:17:05.370Z,31.18
2023-02-09T04:19:32.572Z,33.90
2023-02-09T04:22:01.267Z,32.35
2023-02-09T04:24:31.946Z,31.43
2023-02-09T04:26:59.235Z,31.91
2023-02-09T04:29:26.808Z,31.06
2023-02-09T04:31:54.119Z,31.16
2023-02-09T04:34:23.025Z,30.98
2023-02-09T04:36:51.229Z,31.69
2023-02-09T04:39:18.639Z,31.37
2023-02-09T04:41:45.914Z,30.20
2023-02-09T04:44:13.368Z,30.27
2023-02-09T04:46:40.630Z,30.15
2023-02-09T04:49:07.804Z,29.26
2023-02-09T04:51:34.982Z,29.35
2023-02-09T04:54:02.267Z,28.68
2023-02-09T04:56:31.459Z,29.16
2023-02-09T04:59:19.822Z,29.56
2023-02-09T05:01:47.122Z,29.07
2023-02-09T05:04:14.361Z,28.79
2023-02-09T05:06:44.044Z,30.58
2023-02-09T05:09:11.320Z,29.31
2023-02-09T05:11:38.444Z,30.91
2023-02-09T05:14:05.690Z,30.76
2023-02-09T05:16:32.906Z,30.22
2023-02-09T05:19:00.093Z,29.46
2023-02-09T05:21:27.309Z,30.04
2023-02-09T05:23:54.446Z,30.38
2023-02-09T05:26:21.595Z,30.61
2023-02-09T05:28:48.863Z,30.39
2023-02-09T05:31:19.104Z,30.84
2023-02-09T05:33:46.462Z,31.40
2023-02-09T05:36:14.869Z,30.53
2023-02-09T05:38:42.087Z,29.99
2023-02-09T05:41:32.511Z,29.99
2023-02-09T05:44:02.103Z,29.22
2023-02-09T05:46:29.294Z,29.69
2023-02-09T05:48:56.520Z,30.30
2023-02-09T05:51:23.732Z,31.37
2023-02-09T05:53:54.024Z,30.64
2023-02-09T05:56:22.706Z,30.12
2023-02-09T05:58:49.848Z,29.74
2023-02-09T06:01:17.131Z,29.32
2023-02-09T06:03:44.694Z,29.15
2023-02-09T06:06:11.931Z,28.62
2023-02-09T06:08:39.415Z,29.11
2023-02-09T06:11:06.718Z,29.28
2023-02-09T06:13:33.960Z,28.65
2023-02-09T06:16:01.339Z,29.38
2023-02-09T06:18:28.569Z,29.16
2023-02-09T06:20:55.790Z,29.74
2023-02-09T06:23:23.046Z,29.16
2023-02-09T06:25:53.242Z,29.04
2023-02-09T06:28:21.155Z,28.96
2023-02-09T06:30:53.468Z,28.76
2023-02-09T06:33:22.925Z,28.54
2023-02-09T06:35:52.280Z,27.82
2023-02-09T06:38:19.982Z,27.64
2023-02-09T06:40:48.059Z,27.77
2023-02-09T06:43:15.952Z,30.07
2023-02-09T06:45:46.071Z,31.72
2023-02-09T06:48:13.664Z,31.61
2023-02-09T06:50:41.112Z,31.14
2023-02-09T06:53:08.320Z,29.17
2023-02-09T06:55:36.094Z,30.63
2023-02-09T06:58:04.085Z,27.88
2023-02-09T07:00:34.310Z,28.46
2023-02-09T07:03:01.730Z,30.01
2023-02-09T07:05:29.237Z,27.36
2023-02-09T07:07:56.943Z,29.15
2023-02-09T07:10:24.313Z,28.43
2023-02-09T07:12:51.725Z,28.17
2023-02-09T07:15:19.193Z,29.04
2023-02-09T07:17:48.356Z,27.47
2023-02-09T07:20:15.593Z,29.22
2023-02-09T07:22:42.867Z,27.88
2023-02-09T07:25:14.988Z,25.38
2023-02-09T07:27:45.231Z,28.68
2023-02-09T07:30:13.365Z,27.68
2023-02-09T07:32:42.281Z,26.10
2023-02-09T07:35:09.391Z,26.03
2023-02-09T07:37:38.799Z,24.90
2023-02-09T07:40:07.534Z,24.38
2023-02-09T07:42:34.751Z,27.50
2023-02-09T07:45:01.896Z,25.36
2023-02-09T07:47:29.163Z,24.10
2023-02-09T07:49:56.343Z,23.71
2023-02-09T07:52:23.470Z,23.02
2023-02-09T07:54:51.920Z,23.53
2023-02-09T07:57:19.172Z,21.36
2023-02-09T07:59:46.478Z,24.21
2023-02-09T08:02:26.677Z,23.59
2023-02-09T08:04:57.611Z,24.92
2023-02-09T08:07:26.050Z,22.94
2023-02-09T08:09:53.257Z,24.33
2023-02-09T08:12:44.794Z,23.42
2023-02-09T08:15:15.408Z,22.18
2023-02-09T08:17:45.175Z,23.74
2023-02-09T08:20:22.123Z,24.24
2023-02-09T08:22:54.761Z,24.20
2023-02-09T08:25:25.580Z,21.39
2023-02-09T08:27:53.829Z,21.57
2023-02-09T08:30:21.213Z,18.95
2023-02-09T08:32:50.761Z,21.87
2023-02-09T08:35:18.009Z,21.51
2023-02-09T08:37:45.334Z,22.04
2023-02-09T08:40:14.950Z,25.78
2023-02-09T08:42:42.434Z,19.91
2023-02-09T08:45:10.079Z,19.26
2023-02-09T08:47:38.128Z,19.43
2023-02-09T08:50:08.586Z,19.33
2023-02-09T08:52:38.323Z,21.95
2023-02-09T08:55:05.776Z,22.65
2023-02-09T08:57:43.476Z,20.01
2023-02-09T09:00:12.755Z,20.73
2023-02-09T09:02:40.331Z,19.98
2023-02-09T09:05:07.896Z,18.13
2023-02-09T09:07:37.554Z,18.83
2023-02-09T09:10:08.858Z,18.73
2023-02-09T09:12:36.284Z,18.38
2023-02-09T09:15:04.755Z,18.55
2023-02-09T09:17:32.090Z,18.97
2023-02-09T09:19:59.500Z,18.01
2023-02-09T09:22:29.102Z,18.56
2023-02-09T09:24:56.364Z,18.17
2023-02-09T09:27:25.995Z,18.03
2023-02-09T09:29:57.595Z,17.92
2023-02-09T09:32:25.421Z,19.83
2023-02-09T09:34:58.952Z,18.35
2023-02-09T09:37:27.032Z,17.48
2023-02-09T09:39:54.216Z,16.80
2023-02-09T09:42:33.739Z,17.64
2023-02-09T09:45:01.521Z,14.22
2023-02-09T09:47:42.295Z,15.05
2023-02-09T09:50:33.016Z,19.85
2023-02-09T09:53:33.531Z,17.13
2023-02-09T09:56:09.335Z,17.94
2023-02-09T09:58:42.750Z,19.30
2023-02-09T10:01:15.660Z,18.91
2023-02-09T10:03:43.702Z,17.65
2023-02-09T10:06:22.869Z,18.97
2023-02-09T10:09:12.349Z,20.06
2023-02-09T10:11:48.828Z,19.28
2023-02-09T10:14:16.131Z,17.20
2023-02-09T10:16:45.440Z,16.96
2023-02-09T10:19:29.272Z,16.98
2023-02-09T10:21:58.821Z,17.83
2023-02-09T10:24:33.600Z,16.63
2023-02-09T10:27:31.219Z,17.36
2023-02-09T10:30:28.667Z,15.00
2023-02-09T10:33:00.501Z,14.70
2023-02-09T10:35:41.997Z,13.24
2023-02-09T10:38:19.310Z,12.36
2023-02-09T10:40:50.152Z,13.12
2023-02-09T10:43:24.309Z,17.34
2023-02-09T10:46:01.053Z,21.25
2023-02-09T10:48:39.454Z,22.45
2023-02-09T10:51:15.500Z,21.59
2023-02-09T10:54:04.899Z,20.85
2023-02-09T10:56:49.707Z,17.98
2023-02-09T10:59:23.337Z,18.34
2023-02-09T11:02:01.164Z,16.17
2023-02-09T11:04:40.141Z,17.04
2023-02-09T11:07:14.651Z,18.78
2023-02-09T11:09:47.743Z,17.67
2023-02-09T11:12:15.085Z,19.87
2023-02-09T11:14:46.100Z,18.05
2023-02-09T11:17:22.790Z,21.87
2023-02-09T11:20:04.994Z,24.10
2023-02-09T11:22:50.123Z,24.01
2023-02-09T11:25:45.496Z,23.01
2023-02-09T11:28:33.786Z,21.96
2023-02-09T11:31:00.859Z,19.00
2023-02-09T11:34:08.324Z,20.64
2023-02-09T11:37:04.517Z,20.39
2023-02-09T11:40:02.777Z,24.00
2023-02-09T11:42:45.835Z,23.48
2023-02-09T11:45:35.240Z,24.17
2023-02-09T11:48:23.142Z,23.43
2023-02-09T11:50:59.299Z,26.17
2023-02-09T11:54:16.466Z,23.77
2023-02-09T11:56:50.402Z,21.85
2023-02-09T11:59:36.784Z,24.22
2023-02-09T12:02:23.855Z,22.81
2023-02-09T12:04:55.022Z,24.10
2023-02-09T12:07:54.117Z,22.36
2023-02-09T12:10:29.949Z,22.58
2023-02-09T12:13:39.348Z,20.84
2023-02-09T12:16:21.347Z,21.38
2023-02-09T12:18:48.784Z,20.10
2023-02-09T12:21:33.235Z,22.80
2023-02-09T12:24:01.981Z,22.13
2023-02-09T12:26:43.674Z,20.67
2023-02-09T12:29:41.137Z,22.82
2023-02-09T12:32:08.390Z,23.97
2023-02-09T12:34:39.203Z,23.31
2023-02-09T12:37:16.934Z,26.08
2023-02-09T12:40:07.907Z,25.92
2023-02-09T12:42:55.781Z,22.59
2023-02-09T12:45:43.174Z,21.55
2023-02-09T12:48:10.347Z,20.09
2023-02-09T12:50:43.524Z,22.71
2023-02-09T12:53:26.418Z,21.67
2023-02-09T12:56:11.321Z,24.71
2023-02-09T12:58:44.350Z,23.05
2023-02-09T13:01:14.098Z,24.25
2023-02-09T13:03:49.254Z,20.54
2023-02-09T13:06:49.110Z,21.89
2023-02-09T13:09:39.140Z,20.50
2023-02-09T13:12:15.177Z,20.93
2023-02-09T13:14:50.477Z,20.73
2023-02-09T13:17:36.871Z,22.25
2023-02-09T13:20:30.341Z,20.63
2023-02-09T13:23:16.527Z,20.96
2023-02-09T13:25:44.373Z,22.95
2023-02-09T13:28:26.649Z,24.44
2023-02-09T13:30:54.366Z,28.12
2023-02-09T13:34:03.055Z,29.54
2023-02-09T13:36:32.838Z,28.04
2023-02-09T13:39:00.151Z,28.93
2023-02-09T13:41:40.662Z,29.35
2023-02-09T13:44:30.281Z,25.67
2023-02-09T13:47:00.971Z,22.96
2023-02-09T13:49:30.525Z,22.73
2023-02-09T13:52:17.177Z,25.89
2023-02-09T13:54:44.565Z,26.65
2023-02-09T13:57:32.360Z,25.39
2023-02-09T14:00:27.237Z,24.78
2023-02-09T14:03:03.710Z,23.44
2023-02-09T14:05:41.561Z,23.18
2023-02-09T14:08:11.382Z,23.54
2023-02-09T14:10:44.923Z,22.30
2023-02-09T14:13:26.783Z,23.74
2023-02-09T14:16:09.191Z,27.10
2023-02-09T14:18:58.849Z,29.75
2023-02-09T14:21:40.495Z,26.47
2023-02-09T14:24:27.935Z,27.14
2023-02-09T14:27:15.827Z,27.05
2023-02-09T14:29:47.771Z,27.44
2023-02-09T14:32:35.401Z,26.75
2023-02-09T14:35:25.386Z,24.60
2023-02-09T14:37:56.082Z,23.95
2023-02-09T14:40:27.977Z,26.96
2023-02-09T14:43:11.083Z,25.34
2023-02-09T14:45:45.578Z,26.00
2023-02-09T14:48:27.586Z,25.68
2023-02-09T14:51:03.257Z,25.86
2023-02-09T14:53:33.105Z,25.27
2023-02-09T14:56:02.706Z,24.82
2023-02-09T14:58:32.410Z,25.46
2023-02-09T15:01:02.872Z,26.67
2023-02-09T15:03:30.219Z,25.42
2023-02-09T15:06:02.941Z,27.91
2023-02-09T15:08:37.027Z,27.27
2023-02-09T15:11:26.428Z,27.33
2023-02-09T15:14:03.984Z,27.03
2023-02-09T15:16:43.181Z,26.46
2023-02-09T15:19:19.536Z,27.66
2023-02-09T15:21:58.730Z,26.22
2023-02-09T15:24:32.718Z,27.37
2023-02-09T15:26:59.833Z,26.36
2023-02-09T15:29:27.304Z,26.61
2023-02-09T15:31:55.347Z,26.39
2023-02-09T15:34:22.497Z,26.11
2023-02-09T15:36:49.727Z,25.93
2023-02-09T15:39:25.238Z,28.30
2023-02-09T15:42:11.193Z,28.15
2023-02-09T15:44:57.115Z,27.16
2023-02-09T15:47:43.073Z,27.84
2023-02-09T15:50:10.357Z,27.24
2023-02-09T15:52:37.773Z,26.91
2023-02-09T15:55:05.702Z,25.76
2023-02-09T15:57:32.980Z,25.10
2023-02-09T16:00:02.770Z,24.52
2023-02-09T16:02:29.959Z,25.23
2023-02-09T16:04:57.054Z,24.10
2023-02-09T16:07:27.299Z,24.34
2023-02-09T16:09:54.479Z,24.90
2023-02-09T16:12:21.539Z,24.00
2023-02-09T16:14:48.613Z,23.28
2023-02-09T16:17:15.820Z,24.54
2023-02-09T16:19:43.902Z,24.34
2023-02-09T16:22:13.704Z,24.44
2023-02-09T16:24:45.834Z,25.62
2023-02-09T16:27:28.371Z,27.02
2023-02-09T16:29:57.885Z,26.90
2023-02-09T16:32:28.838Z,26.50
2023-02-09T16:35:04.534Z,26.50
2023-02-09T16:37:38.436Z,28.76
2023-02-09T16:40:33.346Z,29.18
2023-02-09T16:43:01.903Z,28.26
2023-02-09T16:45:37.217Z,26.18
2023-02-09T16:48:04.919Z,27.00
2023-02-09T16:50:39.997Z,27.91
2023-02-09T16:53:37.124Z,27.23
2023-02-09T16:56:10.337Z,26.52
2023-02-09T16:58:40.121Z,27.07
2023-02-09T17:01:20.891Z,27.78
2023-02-09T17:03:52.316Z,28.51
2023-02-09T17:06:23.580Z,27.76
2023-02-09T17:08:51.320Z,27.87
2023-02-09T17:11:23.654Z,28.46
2023-02-09T17:13:51.273Z,28.37
2023-02-09T17:16:27.482Z,28.04
2023-02-09T17:18:58.934Z,27.62
2023-02-09T17:21:35.310Z,28.52
2023-02-09T17:24:06.804Z,26.83
2023-02-09T17:26:37.750Z,26.48
2023-02-09T17:29:04.877Z,27.00
2023-02-09T17:31:47.025Z,26.39
2023-02-09T17:34:18.274Z,25.53
2023-02-09T17:36:45.387Z,28.13
2023-02-09T17:39:14.054Z,26.90
2023-02-09T17:41:46.601Z,26.23
2023-02-09T17:44:43.640Z,25.77
2023-02-09T17:47:20.695Z,27.00
2023-02-09T17:49:47.929Z,26.89
2023-02-09T17:52:19.960Z,26.41
2023-02-09T17:54:47.821Z,28.10
2023-02-09T17:57:17.155Z,29.28
2023-02-09T17:59:44.301Z,27.36
2023-02-09T18:02:17.949Z,28.87
2023-02-09T18:04:47.990Z,29.82
2023-02-09T18:07:20.519Z,29.13
2023-02-09T18:09:50.484Z,30.46
2023-02-09T18:12:26.559Z,31.19
2023-02-09T18:14:54.202Z,31.41
2023-02-09T18:17:21.250Z,31.96
2023-02-09T18:19:48.364Z,30.33
2023-02-09T18:22:20.174Z,29.95
2023-02-09T18:24:50.135Z,30.59
2023-02-09T18:27:23.124Z,31.39
2023-02-09T18:29:50.650Z,31.19
2023-02-09T18:32:21.143Z,31.80
2023-02-09T18:34:50.988Z,32.23
2023-02-09T18:37:18.179Z,31.78
2023-02-09T18:39:46.917Z,30.05
2023-02-09T18:42:19.367Z,29.60
2023-02-09T18:44:48.912Z,31.80
2023-02-09T18:47:18.524Z,31.55
2023-02-09T18:49:45.689Z,29.74
2023-02-09T18:52:17.162Z,30.40
2023-02-09T18:54:44.578Z,29.25
2023-02-09T18:57:13.272Z,30.23
2023-02-09T18:59:40.881Z,30.97
2023-02-09T19:02:11.232Z,29.25
2023-02-09T19:04:38.631Z,27.88
2023-02-09T19:07:09.454Z,27.66
2023-02-09T19:09:39.212Z,28.53
2023-02-09T19:12:07.163Z,29.76
2023-02-09T19:14:40.548Z,30.90
2023-02-09T19:17:13.461Z,28.40
2023-02-09T19:19:40.879Z,28.25
2023-02-09T19:22:13.588Z,27.42
2023-02-09T19:24:43.206Z,27.87
2023-02-09T19:27:16.978Z,28.19
2023-02-09T19:29:45.512Z,26.86
2023-02-09T19:32:14.962Z,27.55
2023-02-09T19:34:43.245Z,27.16
2023-02-09T19:37:12.395Z,26.99
2023-02-09T19:39:41.596Z,26.17
2023-02-09T19:42:08.983Z,25.66
2023-02-09T19:44:36.478Z,26.82
2023-02-09T19:47:03.601Z,28.06
2023-02-09T19:49:32.829Z,27.02
2023-02-09T19:52:01.365Z,28.23
2023-02-09T19:54:28.473Z,27.46
2023-02-09T19:56:55.610Z,28.06
2023-02-09T19:59:22.790Z,27.42
2023-02-09T20:01:50.248Z,27.18
2023-02-09T20:04:17.412Z,28.15
2023-02-09T20:06:46.933Z,26.40
2023-02-09T20:09:14.119Z,27.92
2023-02-09T20:11:43.730Z,27.51
2023-02-09T20:14:10.935Z,26.50
2023-02-09T20:16:38.567Z,27.51
2023-02-09T20:19:08.128Z,28.15
2023-02-09T20:21:37.547Z,27.31
2023-02-09T20:24:09.567Z,27.48
2023-02-09T20:26:36.860Z,29.34
2023-02-09T20:29:08.250Z,27.50
2023-02-09T20:31:38.187Z,28.00
2023-02-09T20:34:07.799Z,28.27
2023-02-09T20:36:38.525Z,27.95
2023-02-09T20:39:10.125Z,28.28
2023-02-09T20:41:59.694Z,27.51
2023-02-09T20:44:45.671Z,26.77
2023-02-09T20:47:13.020Z,27.24
2023-02-09T20:49:40.698Z,26.13
2023-02-09T20:52:08.973Z,26.42
2023-02-09T20:54:45.200Z,27.94
2023-02-09T20:57:12.483Z,26.02
2023-02-09T20:59:40.040Z,26.32
2023-02-09T21:02:07.331Z,26.31
2023-02-09T21:04:36.664Z,25.95
2023-02-09T21:07:04.550Z,26.60
2023-02-09T21:09:31.697Z,27.71
2023-02-09T21:11:58.868Z,27.81
2023-02-09T21:14:32.246Z,29.10
2023-02-09T21:17:06.395Z,27.07
2023-02-09T21:19:40.030Z,25.57
2023-02-09T21:22:07.808Z,26.89
2023-02-09T21:24:37.046Z,25.91
2023-02-09T21:27:06.854Z,24.79
2023-02-09T21:29:37.875Z,25.38
2023-02-09T21:32:07.499Z,24.79
2023-02-09T21:34:37.722Z,25.58
2023-02-09T21:37:10.251Z,26.17
2023-02-09T21:39:43.318Z,26.33
2023-02-09T21:42:28.853Z,26.12
2023-02-09T21:44:57.175Z,25.67
2023-02-09T21:47:34.894Z,25.46
2023-02-09T21:50:02.331Z,26.21
2023-02-09T21:52:30.130Z,26.71
2023-02-09T21:54:57.755Z,26.16
2023-02-09T21:57:26.143Z,27.89
2023-02-09T21:59:56.194Z,27.54
2023-02-09T22:02:27.498Z,27.12
2023-02-09T22:04:54.801Z,28.02
2023-02-09T22:07:22.125Z,26.09
2023-02-09T22:09:51.516Z,26.98
2023-02-09T22:12:18.777Z,26.59
2023-02-09T22:14:46.091Z,27.33
2023-02-09T22:17:15.673Z,28.17
2023-02-09T22:19:42.835Z,27.43
2023-02-09T22:22:10.737Z,28.14
2023-02-09T22:24:38.208Z,27.79
2023-02-09T22:27:05.389Z,27.18
2023-02-09T22:29:34.966Z,26.09
2023-02-09T22:32:02.496Z,26.45
2023-02-09T22:34:29.679Z,25.64
2023-02-09T22:36:56.771Z,26.64
2023-02-09T22:39:23.969Z,26.05
2023-02-09T22:41:52.415Z,26.54
2023-02-09T22:44:19.663Z,25.46
2023-02-09T22:46:47.047Z,26.84
2023-02-09T22:49:20.613Z,26.21
2023-02-09T22:51:49.440Z,26.40
2023-02-09T22:54:19.973Z,27.33
2023-02-09T22:56:47.293Z,27.43
2023-02-09T22:59:15.862Z,26.76
2023-02-09T23:01:44.165Z,27.25
2023-02-09T23:04:11.905Z,26.50
2023-02-09T23:06:39.361Z,27.53
2023-02-09T23:09:08.176Z,27.49
2023-02-09T23:11:36.608Z,26.77
2023-02-09T23:14:09.988Z,27.05
2023-02-09T23:16:39.988Z,26.77
2023-02-09T23:19:13.086Z,27.79
2023-02-09T23:21:46.323Z,27.29
2023-02-09T23:24:16.795Z,27.81
2023-02-09T23:26:45.039Z,27.37
2023-02-09T23:29:15.487Z,27.28
2023-02-09T23:31:44.154Z,27.19
2023-02-09T23:34:21.158Z,27.26
2023-02-09T23:36:48.842Z,27.18
2023-02-09T23:39:21.284Z,25.75
2023-02-09T23:41:48.739Z,27.23
2023-02-09T23:44:16.007Z,27.32
2023-02-09T23:46:43.247Z,27.09
2023-02-09T23:49:11.639Z,25.86
2023-02-09T23:51:38.779Z,26.23
2023-02-09T23:54:07.632Z,25.35
2023-02-09T23:56:38.223Z,26.38
2023-02-09T23:59:08.382Z,26.34
